Littorina — DLMG — position and weather

sailwx.info

Track history (hours):
 
Tides and Currents Weather Stations Pressure Air Temp Water Temp Dewpoint Dewpoint Depression Visibility Wind Speed Wind Dir Waves Ship Positions

Oceanographic research ship Littorina (Germany)

Detailed information on ship capabilities available from University of Delaware's Ocean Information Center.

Last reported at 2014-Oct-20 12:30 UTC. Time now 2014-Oct-20 13:06 UTC.
Position N 54°20' E 010°09'.

Length 30 m; draft 3 m.

Type: Fishing. MMSI: 211214250.

Date/timePositionNaut miles runAvg speedWind from/ knotsBaromVisibWave heightAir tempDewpointWater temp
2014-Oct-20 12:30N 54°20' E 010°09'0 0.0
2014-Oct-20 11:18N 54°20' E 010°09'0 0.0
2014-Oct-20 10:30N 54°20' E 010°09'0 0.0
2014-Oct-20 09:30N 54°20' E 010°09'0 0.0
2014-Oct-20 08:30N 54°20' E 010°09'0 0.0
2014-Oct-20 07:30N 54°20' E 010°09'0 0.0
2014-Oct-20 06:30N 54°20' E 010°09'0 0.0
2014-Oct-20 05:30N 54°20' E 010°09'0 0.0
2014-Oct-20 04:30N 54°20' E 010°09'0 0.0
2014-Oct-20 03:30N 54°20' E 010°09'0 0.0
2014-Oct-20 02:30N 54°20' E 010°09'0 0.0
2014-Oct-20 01:30N 54°20' E 010°09'0 0.0
2014-Oct-20 00:30N 54°20' E 010°09'0 0.0
2014-Oct-19 23:30N 54°20' E 010°09'0 0.0
2014-Oct-19 22:30N 54°20' E 010°09'0 0.0
2014-Oct-19 21:30N 54°20' E 010°09'0 0.0
2014-Oct-19 20:30N 54°20' E 010°09'0 0.0
2014-Oct-19 19:30N 54°20' E 010°09'0 0.0
2014-Oct-19 18:30N 54°20' E 010°09'0 0.0
2014-Oct-19 17:30N 54°20' E 010°09'0 0.0
2014-Oct-19 16:24N 54°20' E 010°09'0 0.0
2014-Oct-19 15:30N 54°20' E 010°09'0 0.0
2014-Oct-19 14:30N 54°20' E 010°09'0 0.0
2014-Oct-19 13:30N 54°20' E 010°09'0 0.0
2014-Oct-19 12:30N 54°20' E 010°09'0 0.0
2014-Oct-19 11:30N 54°20' E 010°09'0 0.0
2014-Oct-19 10:24N 54°20' E 010°09'0 0.0
2014-Oct-19 09:30N 54°20' E 010°09'0 0.0
2014-Oct-19 08:30N 54°20' E 010°09'0 0.0
2014-Oct-19 07:30N 54°20' E 010°09'0 0.0
2014-Oct-19 06:30N 54°20' E 010°09'0 0.0
2014-Oct-19 05:30N 54°20' E 010°09'0 0.0
2014-Oct-19 04:30N 54°20' E 010°09'0 0.0
2014-Oct-19 03:30N 54°20' E 010°09'0 0.0
2014-Oct-19 02:30N 54°20' E 010°09'0 0.0
2014-Oct-19 01:30N 54°20' E 010°09'0 0.0
2014-Oct-19 00:30N 54°20' E 010°09'0 0.0
2014-Oct-18 23:30N 54°20' E 010°09'0 0.0
2014-Oct-18 22:24N 54°20' E 010°09'0 0.0
2014-Oct-18 21:30N 54°20' E 010°09'0 0.0
2014-Oct-18 20:30N 54°20' E 010°09'0 0.0
2014-Oct-18 19:30N 54°20' E 010°09'0 0.0
2014-Oct-18 18:30N 54°20' E 010°09'0 0.0
2014-Oct-18 17:30N 54°20' E 010°09'0 0.0
2014-Oct-18 16:30N 54°20' E 010°09'0 0.0
2014-Oct-18 15:30N 54°20' E 010°09'0 0.0
2014-Oct-18 14:30N 54°20' E 010°09'0 0.0
2014-Oct-18 13:30N 54°20' E 010°09'0 0.0
2014-Oct-18 12:30N 54°20' E 010°09'0 0.0
2014-Oct-18 11:30N 54°20' E 010°09'0 0.0
2014-Oct-18 10:30N 54°20' E 010°09'0 0.0
2014-Oct-18 09:30N 54°20' E 010°09'0 0.0
2014-Oct-18 08:30N 54°20' E 010°09'0 0.0
2014-Oct-18 07:30N 54°20' E 010°09'0 0.0
2014-Oct-18 06:30N 54°20' E 010°09'0 0.0
2014-Oct-18 05:24N 54°20' E 010°09'0 0.0
2014-Oct-18 04:30N 54°20' E 010°09'0 0.0
2014-Oct-18 03:30N 54°20' E 010°09'0 0.0
2014-Oct-18 02:30N 54°20' E 010°09'0 0.0
2014-Oct-18 01:30N 54°20' E 010°09'0 0.0
2014-Oct-18 00:30N 54°20' E 010°09'0 0.0
2014-Oct-17 23:30N 54°20' E 010°09'0 0.0
2014-Oct-17 22:30N 54°20' E 010°09'0 0.0
2014-Oct-17 21:30N 54°20' E 010°09'0 0.0
2014-Oct-17 20:30N 54°20' E 010°09'0 0.0
2014-Oct-17 19:30N 54°20' E 010°09'0 0.0
2014-Oct-17 18:30N 54°20' E 010°09'0 0.0
2014-Oct-17 17:30N 54°20' E 010°09'0 0.0
2014-Oct-17 16:30N 54°20' E 010°09'0 0.0
2014-Oct-17 15:30N 54°20' E 010°09'0 0.0
2014-Oct-17 14:33N 54°20' E 010°09'8 8.4
2014-Oct-17 13:33N 54°28' E 010°13'0 0.4
2014-Oct-17 12:32N 54°28' E 010°13'0 0.0
2014-Oct-17 11:32N 54°28' E 010°13'0 0.0
2014-Oct-17 10:33N 54°28' E 010°13'6 2.2
2014-Oct-17 07:33N 54°32' E 010°04'8 8.1
2014-Oct-17 06:33N 54°26' E 010°13'6 1.2
2014-Oct-17 01:30N 54°20' E 010°09'0 0.0
2014-Oct-17 00:30N 54°20' E 010°09'0 0.0
2014-Oct-16 23:30N 54°20' E 010°09'0 0.0
2014-Oct-16 22:30N 54°20' E 010°09'0 0.0
2014-Oct-16 21:30N 54°20' E 010°09'0 0.0
2014-Oct-16 20:24N 54°20' E 010°09'0 0.0
2014-Oct-16 19:30N 54°20' E 010°09'0 0.0
2014-Oct-16 18:30N 54°20' E 010°09'0 0.0
2014-Oct-16 17:24N 54°20' E 010°09'0 0.0
2014-Oct-16 16:24N 54°20' E 010°09'0 0.0
2014-Oct-16 15:30N 54°20' E 010°09'0 0.5
2014-Oct-16 14:33N 54°20' E 010°10'6 5.3
2014-Oct-16 13:31N 54°25' E 010°12'0 0.0
2014-Oct-16 12:31N 54°25' E 010°12'0 0.0
2014-Oct-16 11:25N 54°25' E 010°12'0 0.0
2014-Oct-16 10:31N 54°25' E 010°12'0 0.0
2014-Oct-16 09:31N 54°25' E 010°12'0 0.0
2014-Oct-16 08:25N 54°25' E 010°12'0 0.0
2014-Oct-16 07:28N 54°25' E 010°12'0 0.0
2014-Oct-16 06:34N 54°25' E 010°12'6 5.1
2014-Oct-16 05:24N 54°20' E 010°09'0 0.0
2014-Oct-16 04:30N 54°20' E 010°09'0 0.0
2014-Oct-16 03:30N 54°20' E 010°09'0 0.0
2014-Oct-16 02:30N 54°20' E 010°09'0 0.0
2014-Oct-16 01:30N 54°20' E 010°09'0 0.0
2014-Oct-16 00:24N 54°20' E 010°09'0 0.0
2014-Oct-15 23:30N 54°20' E 010°09'0 0.0
2014-Oct-15 22:30N 54°20' E 010°09'0 0.0
2014-Oct-15 21:30N 54°20' E 010°09'0 0.0
2014-Oct-15 20:30N 54°20' E 010°09'0 0.0
2014-Oct-15 19:30N 54°20' E 010°09'0 0.0
2014-Oct-15 18:29N 54°20' E 010°09'0 0.0
2014-Oct-15 17:29N 54°20' E 010°09'0 0.0
2014-Oct-15 16:29N 54°20' E 010°09'0 0.0
2014-Oct-15 15:24N 54°20' E 010°09'0 0.1
2014-Oct-15 14:33N 54°20' E 010°09'8 8.2
2014-Oct-15 13:33N 54°28' E 010°13'1 0.6
2014-Oct-15 12:33N 54°28' E 010°13'0 0.0
2014-Oct-15 11:33N 54°28' E 010°13'0 0.0
2014-Oct-15 10:33N 54°28' E 010°13'7 6.8
2014-Oct-15 09:32N 54°32' E 010°03'1 0.7
2014-Oct-15 07:33N 54°31' E 010°05'7 7.4
2014-Oct-15 06:33N 54°25' E 010°12'6 5.4
2014-Oct-15 05:28N 54°20' E 010°09'0 0.0
2014-Oct-15 04:28N 54°20' E 010°09'0 0.0
2014-Oct-15 03:28N 54°20' E 010°09'0 0.0
2014-Oct-15 02:28N 54°20' E 010°09'0 0.0
2014-Oct-15 01:28N 54°20' E 010°09'0 0.0
2014-Oct-15 00:28N 54°20' E 010°09'0 0.0
2014-Oct-14 23:22N 54°20' E 010°09'0 0.0
2014-Oct-14 22:28N 54°20' E 010°09'0 0.0
2014-Oct-14 21:28N 54°20' E 010°09'0 0.0
2014-Oct-14 20:28N 54°20' E 010°09'0 0.0
2014-Oct-14 19:28N 54°20' E 010°09'0 0.0
2014-Oct-14 18:28N 54°20' E 010°09'0 0.0
2014-Oct-14 17:28N 54°20' E 010°09'0 0.0
2014-Oct-14 16:28N 54°20' E 010°09'0 0.0
2014-Oct-14 15:28N 54°20' E 010°09'0 0.0
2014-Oct-14 14:22N 54°20' E 010°09'0 0.0
2014-Oct-14 13:28N 54°20' E 010°09'0 0.0
2014-Oct-14 12:28N 54°20' E 010°09'0 0.0
2014-Oct-14 11:28N 54°20' E 010°09'0 0.0
2014-Oct-14 10:28N 54°20' E 010°09'0 0.0
2014-Oct-14 09:28N 54°20' E 010°09'0 0.0
2014-Oct-14 08:28N 54°20' E 010°09'0 0.0
2014-Oct-14 07:28N 54°20' E 010°09'0 0.0
2014-Oct-14 06:28N 54°20' E 010°09'0 0.0
2014-Oct-14 05:22N 54°20' E 010°09'0 0.0
2014-Oct-14 04:28N 54°20' E 010°09'0 0.0
2014-Oct-14 03:28N 54°20' E 010°09'0 0.0
2014-Oct-14 02:28N 54°20' E 010°09'0 0.0
2014-Oct-14 01:28N 54°20' E 010°09'0 0.0
2014-Oct-14 00:28N 54°20' E 010°09'0 0.0
2014-Oct-13 23:28N 54°20' E 010°09'0 0.0
2014-Oct-13 22:28N 54°20' E 010°09'0 0.0
2014-Oct-13 21:28N 54°20' E 010°09'0 0.0
2014-Oct-13 20:28N 54°20' E 010°09'0 0.0
2014-Oct-13 19:28N 54°20' E 010°09'0 0.0
2014-Oct-13 18:28N 54°20' E 010°09'0 0.0
2014-Oct-13 17:28N 54°20' E 010°09'0 0.0
2014-Oct-13 16:28N 54°20' E 010°09'0 0.0
2014-Oct-13 15:22N 54°20' E 010°09'0 0.0
2014-Oct-13 14:28N 54°20' E 010°09'0 0.0
2014-Oct-13 13:28N 54°20' E 010°09'0 0.0
2014-Oct-13 12:28N 54°20' E 010°09'0 0.0
2014-Oct-13 11:28N 54°20' E 010°09'0 0.0
2014-Oct-13 10:22N 54°20' E 010°09'0 0.0
2014-Oct-13 09:28N 54°20' E 010°09'0 0.0
2014-Oct-13 08:28N 54°20' E 010°09'0 0.0
2014-Oct-13 07:28N 54°20' E 010°09'0 0.0
2014-Oct-13 06:28N 54°20' E 010°09'0 0.0
2014-Oct-13 05:28N 54°20' E 010°09'0 0.0
2014-Oct-13 04:28N 54°20' E 010°09'0 0.0
2014-Oct-13 03:28N 54°20' E 010°09'0 0.0
2014-Oct-13 02:28N 54°20' E 010°09'0 0.0
2014-Oct-13 01:28N 54°20' E 010°09'0 0.0
2014-Oct-13 00:28N 54°20' E 010°09'0 0.0
2014-Oct-12 23:28N 54°20' E 010°09'0 0.0
2014-Oct-12 22:28N 54°20' E 010°09'0 0.0
2014-Oct-12 21:28N 54°20' E 010°09'0 0.0
2014-Oct-12 20:28N 54°20' E 010°09'0 0.0
2014-Oct-12 19:28N 54°20' E 010°09'0 0.0
2014-Oct-12 18:28N 54°20' E 010°09'0 0.0
2014-Oct-12 17:28N 54°20' E 010°09'0 0.0
2014-Oct-12 16:28N 54°20' E 010°09'0 0.0
2014-Oct-12 15:28N 54°20' E 010°09'0 0.0
2014-Oct-12 14:28N 54°20' E 010°09'0 0.0
2014-Oct-12 13:28N 54°20' E 010°09'0 0.0
2014-Oct-12 12:28N 54°20' E 010°09'0 0.0
2014-Oct-12 11:28N 54°20' E 010°09'0 0.0
2014-Oct-12 10:28N 54°20' E 010°09'0 0.0
2014-Oct-12 09:28N 54°20' E 010°09'0 0.0
2014-Oct-12 08:28N 54°20' E 010°09'0 0.0
2014-Oct-12 07:28N 54°20' E 010°09'0 0.0
2014-Oct-12 06:28N 54°20' E 010°09'0 0.0
2014-Oct-12 05:28N 54°20' E 010°09'0 0.0
2014-Oct-12 04:28N 54°20' E 010°09'0 0.0
2014-Oct-12 03:28N 54°20' E 010°09'0 0.0
2014-Oct-12 02:28N 54°20' E 010°09'0 0.0
2014-Oct-12 01:28N 54°20' E 010°09'0 0.0
2014-Oct-12 00:28N 54°20' E 010°09'0 0.0
2014-Oct-11 23:28N 54°20' E 010°09'0 0.0
2014-Oct-11 22:04N 54°20' E 010°09'0 0.0
2014-Oct-11 21:28N 54°20' E 010°09'0 0.0
2014-Oct-11 20:28N 54°20' E 010°09'0 0.0
2014-Oct-11 19:28N 54°20' E 010°09'0 0.0
2014-Oct-11 18:28N 54°20' E 010°09'0 0.0
2014-Oct-11 17:28N 54°20' E 010°09'0 0.0
2014-Oct-11 16:28N 54°20' E 010°09'0 0.0
2014-Oct-11 15:28N 54°20' E 010°09'0 0.0
2014-Oct-11 14:28N 54°20' E 010°09'0 0.0
2014-Oct-11 13:28N 54°20' E 010°09'0 0.0
2014-Oct-11 12:28N 54°20' E 010°09'0 0.0
2014-Oct-11 11:28N 54°20' E 010°09'0 0.0
2014-Oct-11 10:28N 54°20' E 010°09'0 0.0
2014-Oct-11 09:28N 54°20' E 010°09'0 0.0
2014-Oct-11 08:28N 54°20' E 010°09'0 0.0
2014-Oct-11 07:28N 54°20' E 010°09'0 0.0
2014-Oct-11 06:28N 54°20' E 010°09'0 0.0
2014-Oct-11 05:28N 54°20' E 010°09'0 0.0
2014-Oct-11 04:28N 54°20' E 010°09'0 0.0
2014-Oct-11 03:28N 54°20' E 010°09'0 0.0
2014-Oct-11 02:28N 54°20' E 010°09'0 0.0
2014-Oct-11 01:28N 54°20' E 010°09'0 0.0
2014-Oct-11 00:28N 54°20' E 010°09'0 0.0
2014-Oct-10 23:28N 54°20' E 010°09'0 0.0
2014-Oct-10 22:34N 54°20' E 010°09'0 0.0
2014-Oct-10 21:28N 54°20' E 010°09'0 0.0
2014-Oct-10 20:28N 54°20' E 010°09'0 0.0
2014-Oct-10 19:28N 54°20' E 010°09'0 0.0
2014-Oct-10 18:28N 54°20' E 010°09'0 0.0
2014-Oct-10 17:28N 54°20' E 010°09'0 0.0
2014-Oct-10 16:34N 54°20' E 010°09'0 0.0
2014-Oct-10 15:28N 54°20' E 010°09'0 0.0
2014-Oct-10 14:33N 54°20' E 010°09'9 8.6
2014-Oct-10 13:33N 54°28' E 010°13'  
Track history (hours):
 
Tides and Currents Weather Stations Pressure Air Temp Water Temp Dewpoint Dewpoint Depression Visibility Wind Speed Wind Dir Waves Ship Positions

Oceanographic research ship Littorina (Germany)

Detailed information on ship capabilities available from University of Delaware's Ocean Information Center.

Last reported at 2014-Oct-20 12:30 UTC. Time now 2014-Oct-20 13:06 UTC.
Position N 54°20' E 010°09'.

Length 30 m; draft 3 m.

Type: Fishing. MMSI: 211214250.

Date/timePositionNaut miles runAvg speedWind from/ knotsBaromVisibWave heightAir tempDewpointWater temp
2014-Oct-20 12:30N 54°20' E 010°09'0 0.0
2014-Oct-20 11:18N 54°20' E 010°09'0 0.0
2014-Oct-20 10:30N 54°20' E 010°09'0 0.0
2014-Oct-20 09:30N 54°20' E 010°09'0 0.0
2014-Oct-20 08:30N 54°20' E 010°09'0 0.0
2014-Oct-20 07:30N 54°20' E 010°09'0 0.0
2014-Oct-20 06:30N 54°20' E 010°09'0 0.0
2014-Oct-20 05:30N 54°20' E 010°09'0 0.0
2014-Oct-20 04:30N 54°20' E 010°09'0 0.0
2014-Oct-20 03:30N 54°20' E 010°09'0 0.0
2014-Oct-20 02:30N 54°20' E 010°09'0 0.0
2014-Oct-20 01:30N 54°20' E 010°09'0 0.0
2014-Oct-20 00:30N 54°20' E 010°09'0 0.0
2014-Oct-19 23:30N 54°20' E 010°09'0 0.0
2014-Oct-19 22:30N 54°20' E 010°09'0 0.0
2014-Oct-19 21:30N 54°20' E 010°09'0 0.0
2014-Oct-19 20:30N 54°20' E 010°09'0 0.0
2014-Oct-19 19:30N 54°20' E 010°09'0 0.0
2014-Oct-19 18:30N 54°20' E 010°09'0 0.0
2014-Oct-19 17:30N 54°20' E 010°09'0 0.0
2014-Oct-19 16:24N 54°20' E 010°09'0 0.0
2014-Oct-19 15:30N 54°20' E 010°09'0 0.0
2014-Oct-19 14:30N 54°20' E 010°09'0 0.0
2014-Oct-19 13:30N 54°20' E 010°09'0 0.0
2014-Oct-19 12:30N 54°20' E 010°09'0 0.0
2014-Oct-19 11:30N 54°20' E 010°09'0 0.0
2014-Oct-19 10:24N 54°20' E 010°09'0 0.0
2014-Oct-19 09:30N 54°20' E 010°09'0 0.0
2014-Oct-19 08:30N 54°20' E 010°09'0 0.0
2014-Oct-19 07:30N 54°20' E 010°09'0 0.0
2014-Oct-19 06:30N 54°20' E 010°09'0 0.0
2014-Oct-19 05:30N 54°20' E 010°09'0 0.0
2014-Oct-19 04:30N 54°20' E 010°09'0 0.0
2014-Oct-19 03:30N 54°20' E 010°09'0 0.0
2014-Oct-19 02:30N 54°20' E 010°09'0 0.0
2014-Oct-19 01:30N 54°20' E 010°09'0 0.0
2014-Oct-19 00:30N 54°20' E 010°09'0 0.0
2014-Oct-18 23:30N 54°20' E 010°09'0 0.0
2014-Oct-18 22:24N 54°20' E 010°09'0 0.0
2014-Oct-18 21:30N 54°20' E 010°09'0 0.0
2014-Oct-18 20:30N 54°20' E 010°09'0 0.0
2014-Oct-18 19:30N 54°20' E 010°09'0 0.0
2014-Oct-18 18:30N 54°20' E 010°09'0 0.0
2014-Oct-18 17:30N 54°20' E 010°09'0 0.0
2014-Oct-18 16:30N 54°20' E 010°09'0 0.0
2014-Oct-18 15:30N 54°20' E 010°09'0 0.0
2014-Oct-18 14:30N 54°20' E 010°09'0 0.0
2014-Oct-18 13:30N 54°20' E 010°09'0 0.0
2014-Oct-18 12:30N 54°20' E 010°09'0 0.0
2014-Oct-18 11:30N 54°20' E 010°09'0 0.0
2014-Oct-18 10:30N 54°20' E 010°09'0 0.0
2014-Oct-18 09:30N 54°20' E 010°09'0 0.0
2014-Oct-18 08:30N 54°20' E 010°09'0 0.0
2014-Oct-18 07:30N 54°20' E 010°09'0 0.0
2014-Oct-18 06:30N 54°20' E 010°09'0 0.0
2014-Oct-18 05:24N 54°20' E 010°09'0 0.0
2014-Oct-18 04:30N 54°20' E 010°09'0 0.0
2014-Oct-18 03:30N 54°20' E 010°09'0 0.0
2014-Oct-18 02:30N 54°20' E 010°09'0 0.0
2014-Oct-18 01:30N 54°20' E 010°09'0 0.0
2014-Oct-18 00:30N 54°20' E 010°09'0 0.0
2014-Oct-17 23:30N 54°20' E 010°09'0 0.0
2014-Oct-17 22:30N 54°20' E 010°09'0 0.0
2014-Oct-17 21:30N 54°20' E 010°09'0 0.0
2014-Oct-17 20:30N 54°20' E 010°09'0 0.0
2014-Oct-17 19:30N 54°20' E 010°09'0 0.0
2014-Oct-17 18:30N 54°20' E 010°09'0 0.0
2014-Oct-17 17:30N 54°20' E 010°09'0 0.0
2014-Oct-17 16:30N 54°20' E 010°09'0 0.0
2014-Oct-17 15:30N 54°20' E 010°09'0 0.0
2014-Oct-17 14:33N 54°20' E 010°09'8 8.4
2014-Oct-17 13:33N 54°28' E 010°13'0 0.4
2014-Oct-17 12:32N 54°28' E 010°13'0 0.0
2014-Oct-17 11:32N 54°28' E 010°13'0 0.0
2014-Oct-17 10:33N 54°28' E 010°13'6 2.2
2014-Oct-17 07:33N 54°32' E 010°04'8 8.1
2014-Oct-17 06:33N 54°26' E 010°13'6 1.2
2014-Oct-17 01:30N 54°20' E 010°09'0 0.0
2014-Oct-17 00:30N 54°20' E 010°09'0 0.0
2014-Oct-16 23:30N 54°20' E 010°09'0 0.0
2014-Oct-16 22:30N 54°20' E 010°09'0 0.0
2014-Oct-16 21:30N 54°20' E 010°09'0 0.0
2014-Oct-16 20:24N 54°20' E 010°09'0 0.0
2014-Oct-16 19:30N 54°20' E 010°09'0 0.0
2014-Oct-16 18:30N 54°20' E 010°09'0 0.0
2014-Oct-16 17:24N 54°20' E 010°09'0 0.0
2014-Oct-16 16:24N 54°20' E 010°09'0 0.0
2014-Oct-16 15:30N 54°20' E 010°09'0 0.5
2014-Oct-16 14:33N 54°20' E 010°10'6 5.3
2014-Oct-16 13:31N 54°25' E 010°12'0 0.0
2014-Oct-16 12:31N 54°25' E 010°12'0 0.0
2014-Oct-16 11:25N 54°25' E 010°12'0 0.0
2014-Oct-16 10:31N 54°25' E 010°12'0 0.0
2014-Oct-16 09:31N 54°25' E 010°12'0 0.0
2014-Oct-16 08:25N 54°25' E 010°12'0 0.0
2014-Oct-16 07:28N 54°25' E 010°12'0 0.0
2014-Oct-16 06:34N 54°25' E 010°12'6 5.1
2014-Oct-16 05:24N 54°20' E 010°09'0 0.0
2014-Oct-16 04:30N 54°20' E 010°09'0 0.0
2014-Oct-16 03:30N 54°20' E 010°09'0 0.0
2014-Oct-16 02:30N 54°20' E 010°09'0 0.0
2014-Oct-16 01:30N 54°20' E 010°09'0 0.0
2014-Oct-16 00:24N 54°20' E 010°09'0 0.0
2014-Oct-15 23:30N 54°20' E 010°09'0 0.0
2014-Oct-15 22:30N 54°20' E 010°09'0 0.0
2014-Oct-15 21:30N 54°20' E 010°09'0 0.0
2014-Oct-15 20:30N 54°20' E 010°09'0 0.0
2014-Oct-15 19:30N 54°20' E 010°09'0 0.0
2014-Oct-15 18:29N 54°20' E 010°09'0 0.0
2014-Oct-15 17:29N 54°20' E 010°09'0 0.0
2014-Oct-15 16:29N 54°20' E 010°09'0 0.0
2014-Oct-15 15:24N 54°20' E 010°09'0 0.1
2014-Oct-15 14:33N 54°20' E 010°09'8 8.2
2014-Oct-15 13:33N 54°28' E 010°13'1 0.6
2014-Oct-15 12:33N 54°28' E 010°13'0 0.0
2014-Oct-15 11:33N 54°28' E 010°13'0 0.0
2014-Oct-15 10:33N 54°28' E 010°13'7 6.8
2014-Oct-15 09:32N 54°32' E 010°03'1 0.7
2014-Oct-15 07:33N 54°31' E 010°05'7 7.4
2014-Oct-15 06:33N 54°25' E 010°12'6 5.4
2014-Oct-15 05:28N 54°20' E 010°09'0 0.0
2014-Oct-15 04:28N 54°20' E 010°09'0 0.0
2014-Oct-15 03:28N 54°20' E 010°09'0 0.0
2014-Oct-15 02:28N 54°20' E 010°09'0 0.0
2014-Oct-15 01:28N 54°20' E 010°09'0 0.0
2014-Oct-15 00:28N 54°20' E 010°09'0 0.0
2014-Oct-14 23:22N 54°20' E 010°09'0 0.0
2014-Oct-14 22:28N 54°20' E 010°09'0 0.0
2014-Oct-14 21:28N 54°20' E 010°09'0 0.0
2014-Oct-14 20:28N 54°20' E 010°09'0 0.0
2014-Oct-14 19:28N 54°20' E 010°09'0 0.0
2014-Oct-14 18:28N 54°20' E 010°09'0 0.0
2014-Oct-14 17:28N 54°20' E 010°09'0 0.0
2014-Oct-14 16:28N 54°20' E 010°09'0 0.0
2014-Oct-14 15:28N 54°20' E 010°09'0 0.0
2014-Oct-14 14:22N 54°20' E 010°09'0 0.0
2014-Oct-14 13:28N 54°20' E 010°09'0 0.0
2014-Oct-14 12:28N 54°20' E 010°09'0 0.0
2014-Oct-14 11:28N 54°20' E 010°09'0 0.0
2014-Oct-14 10:28N 54°20' E 010°09'0 0.0
2014-Oct-14 09:28N 54°20' E 010°09'0 0.0
2014-Oct-14 08:28N 54°20' E 010°09'0 0.0
2014-Oct-14 07:28N 54°20' E 010°09'0 0.0
2014-Oct-14 06:28N 54°20' E 010°09'0 0.0
2014-Oct-14 05:22N 54°20' E 010°09'0 0.0
2014-Oct-14 04:28N 54°20' E 010°09'0 0.0
2014-Oct-14 03:28N 54°20' E 010°09'0 0.0
2014-Oct-14 02:28N 54°20' E 010°09'0 0.0
2014-Oct-14 01:28N 54°20' E 010°09'0 0.0
2014-Oct-14 00:28N 54°20' E 010°09'0 0.0
2014-Oct-13 23:28N 54°20' E 010°09'0 0.0
2014-Oct-13 22:28N 54°20' E 010°09'0 0.0
2014-Oct-13 21:28N 54°20' E 010°09'0 0.0
2014-Oct-13 20:28N 54°20' E 010°09'0 0.0
2014-Oct-13 19:28N 54°20' E 010°09'0 0.0
2014-Oct-13 18:28N 54°20' E 010°09'0 0.0
2014-Oct-13 17:28N 54°20' E 010°09'0 0.0
2014-Oct-13 16:28N 54°20' E 010°09'0 0.0
2014-Oct-13 15:22N 54°20' E 010°09'0 0.0
2014-Oct-13 14:28N 54°20' E 010°09'0 0.0
2014-Oct-13 13:28N 54°20' E 010°09'0 0.0
2014-Oct-13 12:28N 54°20' E 010°09'0 0.0
2014-Oct-13 11:28N 54°20' E 010°09'0 0.0
2014-Oct-13 10:22N 54°20' E 010°09'0 0.0
2014-Oct-13 09:28N 54°20' E 010°09'0 0.0
2014-Oct-13 08:28N 54°20' E 010°09'0 0.0
2014-Oct-13 07:28N 54°20' E 010°09'0 0.0
2014-Oct-13 06:28N 54°20' E 010°09'0 0.0
2014-Oct-13 05:28N 54°20' E 010°09'0 0.0
2014-Oct-13 04:28N 54°20' E 010°09'0 0.0
2014-Oct-13 03:28N 54°20' E 010°09'0 0.0
2014-Oct-13 02:28N 54°20' E 010°09'0 0.0
2014-Oct-13 01:28N 54°20' E 010°09'0 0.0
2014-Oct-13 00:28N 54°20' E 010°09'0 0.0
2014-Oct-12 23:28N 54°20' E 010°09'0 0.0
2014-Oct-12 22:28N 54°20' E 010°09'0 0.0
2014-Oct-12 21:28N 54°20' E 010°09'0 0.0
2014-Oct-12 20:28N 54°20' E 010°09'0 0.0
2014-Oct-12 19:28N 54°20' E 010°09'0 0.0
2014-Oct-12 18:28N 54°20' E 010°09'0 0.0
2014-Oct-12 17:28N 54°20' E 010°09'0 0.0
2014-Oct-12 16:28N 54°20' E 010°09'0 0.0
2014-Oct-12 15:28N 54°20' E 010°09'0 0.0
2014-Oct-12 14:28N 54°20' E 010°09'0 0.0
2014-Oct-12 13:28N 54°20' E 010°09'0 0.0
2014-Oct-12 12:28N 54°20' E 010°09'0 0.0
2014-Oct-12 11:28N 54°20' E 010°09'0 0.0
2014-Oct-12 10:28N 54°20' E 010°09'0 0.0
2014-Oct-12 09:28N 54°20' E 010°09'0 0.0
2014-Oct-12 08:28N 54°20' E 010°09'0 0.0
2014-Oct-12 07:28N 54°20' E 010°09'0 0.0
2014-Oct-12 06:28N 54°20' E 010°09'0 0.0
2014-Oct-12 05:28N 54°20' E 010°09'0 0.0
2014-Oct-12 04:28N 54°20' E 010°09'0 0.0
2014-Oct-12 03:28N 54°20' E 010°09'0 0.0
2014-Oct-12 02:28N 54°20' E 010°09'0 0.0
2014-Oct-12 01:28N 54°20' E 010°09'0 0.0
2014-Oct-12 00:28N 54°20' E 010°09'0 0.0
2014-Oct-11 23:28N 54°20' E 010°09'0 0.0
2014-Oct-11 22:04N 54°20' E 010°09'0 0.0
2014-Oct-11 21:28N 54°20' E 010°09'0 0.0
2014-Oct-11 20:28N 54°20' E 010°09'0 0.0
2014-Oct-11 19:28N 54°20' E 010°09'0 0.0
2014-Oct-11 18:28N 54°20' E 010°09'0 0.0
2014-Oct-11 17:28N 54°20' E 010°09'0 0.0
2014-Oct-11 16:28N 54°20' E 010°09'0 0.0
2014-Oct-11 15:28N 54°20' E 010°09'0 0.0
2014-Oct-11 14:28N 54°20' E 010°09'0 0.0
2014-Oct-11 13:28N 54°20' E 010°09'0 0.0
2014-Oct-11 12:28N 54°20' E 010°09'0 0.0
2014-Oct-11 11:28N 54°20' E 010°09'0 0.0
2014-Oct-11 10:28N 54°20' E 010°09'0 0.0
2014-Oct-11 09:28N 54°20' E 010°09'0 0.0
2014-Oct-11 08:28N 54°20' E 010°09'0 0.0
2014-Oct-11 07:28N 54°20' E 010°09'0 0.0
2014-Oct-11 06:28N 54°20' E 010°09'0 0.0
2014-Oct-11 05:28N 54°20' E 010°09'0 0.0
2014-Oct-11 04:28N 54°20' E 010°09'0 0.0
2014-Oct-11 03:28N 54°20' E 010°09'0 0.0
2014-Oct-11 02:28N 54°20' E 010°09'0 0.0
2014-Oct-11 01:28N 54°20' E 010°09'0 0.0
2014-Oct-11 00:28N 54°20' E 010°09'0 0.0
2014-Oct-10 23:28N 54°20' E 010°09'0 0.0
2014-Oct-10 22:34N 54°20' E 010°09'0 0.0
2014-Oct-10 21:28N 54°20' E 010°09'0 0.0
2014-Oct-10 20:28N 54°20' E 010°09'0 0.0
2014-Oct-10 19:28N 54°20' E 010°09'0 0.0
2014-Oct-10 18:28N 54°20' E 010°09'0 0.0
2014-Oct-10 17:28N 54°20' E 010°09'0 0.0
2014-Oct-10 16:34N 54°20' E 010°09'0 0.0
2014-Oct-10 15:28N 54°20' E 010°09'0 0.0
2014-Oct-10 14:33N 54°20' E 010°09'9 8.6
2014-Oct-10 13:33N 54°28' E 010°13'  

Dump ship's entire track history